Time,TemperatureF,DewpointF,PressureIn,WindDirection,WindDirectionDegrees,WindSpeedMPH,WindSpeedGustMPH,Humidity,HourlyPrecipIn,Conditions,Clouds,dailyrainin,SoftwareType,DateUTC
2013-05-13 00:00:00,64.0,-99.9,-100.00,SSW,208,0.0,6.0,-999,0.00,,---,0.00,VWS V14.01,2013-05-13 06:00:00,
2013-05-13 00:01:00,63.9,63.9,-100.00,SSW,212,2.0,3.0,-999,0.00,,---,0.00,VWS V14.01,2013-05-13 06:01:00,
2013-05-13 00:06:00,63.4,63.4,-100.00,SSW,206,1.0,5.0,-999,0.00,,---,0.00,VWS V14.01,2013-05-13 06:06:00,
2013-05-13 00:11:00,63.2,63.2,-100.00,SSW,206,1.0,5.0,-999,0.00,,---,0.00,VWS V14.01,2013-05-13 06:11:00,
2013-05-13 00:16:00,63.4,63.4,-100.00,SSW,206,0.0,5.0,-999,0.00,,---,0.00,VWS V14.01,2013-05-13 06:16:00,
2013-05-13 00:21:00,63.1,63.1,-100.00,SW,215,0.0,5.0,-999,0.00,,---,0.00,VWS V14.01,2013-05-13 06:21:00,
2013-05-13 00:26:00,62.9,62.9,-100.00,SSW,202,1.0,7.0,-999,0.00,,---,0.00,VWS V14.01,2013-05-13 06:26:00,
2013-05-13 00:30:00,63.2,-99.9,-100.00,SW,220,2.0,7.0,-999,0.00,,---,0.00,VWS V14.01,2013-05-13 06:30:00,
2013-05-13 00:31:00,63.0,63.0,-100.00,SW,220,0.0,4.0,-999,0.00,,---,0.00,VWS V14.01,2013-05-13 06:31:00,
2013-05-13 00:36:00,63.0,63.0,-100.00,South,183,4.0,7.0,-999,0.00,,---,0.00,VWS V14.01,2013-05-13 06:36:00,
2013-05-13 00:41:00,63.2,63.2,-100.00,SSW,208,2.0,7.0,-999,0.00,,---,0.00,VWS V14.01,2013-05-13 06:41:00,
2013-05-13 00:46:00,63.2,63.2,-100.00,SSW,196,0.0,7.0,-999,0.00,,---,0.00,VWS V14.01,2013-05-13 06:46:00,
2013-05-13 00:51:00,63.3,63.3,-100.00,SSW,211,0.0,7.0,-999,0.00,,---,0.00,VWS V14.01,2013-05-13 06:51:00,
2013-05-13 00:56:00,63.0,63.0,-100.00,SSW,210,0.0,7.0,-999,0.00,,---,0.00,VWS V14.01,2013-05-13 06:56:00,
2013-05-13 01:00:00,63.1,-99.9,-100.00,SSW,196,0.0,7.0,-999,0.00,,---,0.00,VWS V14.01,2013-05-13 07:00:00,
2013-05-13 01:01:00,63.0,63.0,-100.00,WSW,245,3.0,3.0,-999,0.00,,---,0.00,VWS V14.01,2013-05-13 07:01:00,
2013-05-13 01:06:00,63.1,63.1,-100.00,SW,218,1.0,6.0,-999,0.00,,---,0.00,VWS V14.01,2013-05-13 07:06:00,
2013-05-13 01:11:00,62.9,62.9,-100.00,SSW,211,4.0,6.0,-999,0.00,,---,0.00,VWS V14.01,2013-05-13 07:11:00,
2013-05-13 01:16:00,62.6,62.6,-100.00,WSW,245,3.0,6.0,-999,0.00,,---,0.00,VWS V14.01,2013-05-13 07:16:00,
2013-05-13 01:21:00,62.7,62.7,-100.00,SSW,200,1.0,6.0,-999,0.00,,---,0.00,VWS V14.01,2013-05-13 07:21:00,
2013-05-13 01:26:00,61.9,61.9,-100.00,SSW,207,1.0,6.0,-999,0.00,,---,0.00,VWS V14.01,2013-05-13 07:26:00,
2013-05-13 01:30:00,62.6,-99.9,-100.00,SSW,212,0.0,6.0,-999,0.00,,---,0.00,VWS V14.01,2013-05-13 07:30:00,
2013-05-13 01:31:00,62.7,62.7,-100.00,SSW,203,0.0,1.0,-999,0.00,,---,0.00,VWS V14.01,2013-05-13 07:31:00,
2013-05-13 01:36:00,62.5,62.5,-100.00,West,260,2.0,5.0,-999,0.00,,---,0.00,VWS V14.01,2013-05-13 07:36:00,
2013-05-13 01:41:00,62.9,62.9,-100.00,SW,215,3.0,5.0,-999,0.00,,---,0.00,VWS V14.01,2013-05-13 07:41:00,
2013-05-13 01:46:00,63.2,63.2,-100.00,SSW,212,0.0,5.0,-999,0.00,,---,0.00,VWS V14.01,2013-05-13 07:46:00,
2013-05-13 01:51:00,62.7,62.7,-100.00,SSW,207,0.0,5.0,-999,0.00,,---,0.00,VWS V14.01,2013-05-13 07:51:00,
2013-05-13 01:56:00,61.4,61.4,-100.00,SSW,212,0.0,5.0,-999,0.00,,---,0.00,VWS V14.01,2013-05-13 07:56:00,
2013-05-13 02:00:00,60.6,-99.9,-100.00,SSW,207,4.0,8.0,-999,0.00,,---,0.00,VWS V14.01,2013-05-13 08:00:00,
2013-05-13 02:01:00,60.6,60.6,-100.00,SSW,198,0.0,5.0,-999,0.00,,---,0.00,VWS V14.01,2013-05-13 08:01:00,
2013-05-13 02:06:00,60.3,60.3,-100.00,SW,224,4.0,6.0,-999,0.00,,---,0.00,VWS V14.01,2013-05-13 08:06:00,
2013-05-13 02:11:00,60.6,60.6,-100.00,SSW,213,3.0,6.0,-999,0.00,,---,0.00,VWS V14.01,2013-05-13 08:11:00,
2013-05-13 02:16:00,60.3,60.3,-100.00,SSW,210,2.0,6.0,-999,0.00,,---,0.00,VWS V14.01,2013-05-13 08:16:00,
2013-05-13 02:20:00,60.3,60.3,-100.00,SSW,201,4.0,6.0,-999,0.00,,---,0.00,VWS V14.01,2013-05-13 08:20:00,
2013-05-13 02:25:00,60.9,60.9,-100.00,SW,222,9.0,9.0,-999,0.00,,---,0.00,VWS V14.01,2013-05-13 08:25:00,
2013-05-13 02:30:00,61.1,61.1,-100.00,SSW,208,4.0,4.0,-999,0.00,,---,0.00,VWS V14.01,2013-05-13 08:30:00,
2013-05-13 02:35:00,60.8,60.8,-100.00,SSW,207,0.0,5.0,-999,0.00,,---,0.00,VWS V14.01,2013-05-13 08:35:00,
2013-05-13 02:40:00,60.8,60.8,-100.00,SW,217,0.0,5.0,-999,0.00,,---,0.00,VWS V14.01,2013-05-13 08:40:00,
2013-05-13 02:45:00,61.0,61.0,-100.00,SSW,209,0.0,5.0,-999,0.00,,---,0.00,VWS V14.01,2013-05-13 08:45:00,
2013-05-13 02:50:00,60.4,60.4,-100.00,SSW,207,0.0,5.0,-999,0.00,,---,0.00,VWS V14.01,2013-05-13 08:50:00,
2013-05-13 02:55:00,60.1,60.1,-100.00,SW,214,0.0,5.0,-999,0.00,,---,0.00,VWS V14.01,2013-05-13 08:55:00,
2013-05-13 03:00:00,59.0,59.0,-100.00,SSW,204,1.0,2.0,-999,0.00,,---,0.00,VWS V14.01,2013-05-13 09:00:00,
2013-05-13 03:05:00,59.2,59.2,-100.00,SSW,210,0.0,4.0,-999,0.00,,---,0.00,VWS V14.01,2013-05-13 09:05:00,
2013-05-13 03:10:00,58.4,58.4,-100.00,SSW,213,2.0,4.0,-999,0.00,,---,0.00,VWS V14.01,2013-05-13 09:10:00,
2013-05-13 03:15:00,58.8,58.8,-100.00,SSW,212,0.0,4.0,-999,0.00,,---,0.00,VWS V14.01,2013-05-13 09:15:00,
2013-05-13 03:20:00,58.2,58.2,-100.00,SSW,206,0.0,4.0,-999,0.00,,---,0.00,VWS V14.01,2013-05-13 09:20:00,
2013-05-13 03:25:00,56.8,56.8,-100.00,SSW,206,0.0,4.0,-999,0.00,,---,0.00,VWS V14.01,2013-05-13 09:25:00,
2013-05-13 03:30:00,56.8,56.8,-100.00,SSW,206,0.0,0.0,-999,0.00,,---,0.00,VWS V14.01,2013-05-13 09:30:00,
2013-05-13 03:35:00,56.3,56.3,-100.00,SSW,206,0.0,0.0,-999,0.00,,---,0.00,VWS V14.01,2013-05-13 09:35:00,
2013-05-13 03:40:00,55.9,55.9,-100.00,SSW,206,0.0,0.0,-999,0.00,,---,0.00,VWS V14.01,2013-05-13 09:40:00,
2013-05-13 03:45:00,55.8,55.8,-100.00,SSW,206,0.0,0.0,-999,0.00,,---,0.00,VWS V14.01,2013-05-13 09:45:00,
2013-05-13 03:50:00,55.6,55.6,-100.00,SSW,206,0.0,0.0,-999,0.00,,---,0.00,VWS V14.01,2013-05-13 09:50:00,
2013-05-13 03:55:00,55.0,55.0,-100.00,SSW,206,0.0,0.0,-999,0.00,,---,0.00,VWS V14.01,2013-05-13 09:55:00,
2013-05-13 04:00:00,55.6,55.6,-100.00,SSW,206,0.0,0.0,-999,0.00,,---,0.00,VWS V14.01,2013-05-13 10:00:00,
2013-05-13 04:05:00,55.2,55.2,-100.00,West,275,0.0,2.0,-999,0.00,,---,0.00,VWS V14.01,2013-05-13 10:05:00,
2013-05-13 04:10:00,55.5,55.5,-100.00,West,275,0.0,2.0,-999,0.00,,---,0.00,VWS V14.01,2013-05-13 10:10:00,
2013-05-13 04:15:00,56.9,56.9,-100.00,West,275,0.0,2.0,-999,0.00,,---,0.00,VWS V14.01,2013-05-13 10:15:00,
2013-05-13 04:20:00,54.9,54.9,-100.00,West,275,0.0,2.0,-999,0.00,,---,0.00,VWS V14.01,2013-05-13 10:20:00,
2013-05-13 04:25:00,55.7,55.7,-100.00,West,275,0.0,2.0,-999,0.00,,---,0.00,VWS V14.01,2013-05-13 10:25:00,
2013-05-13 04:30:00,55.8,55.8,-100.00,SSW,196,0.0,0.0,-999,0.00,,---,0.00,VWS V14.01,2013-05-13 10:30:00,
2013-05-13 04:35:00,55.2,55.2,-100.00,WSW,248,0.0,0.0,-999,0.00,,---,0.00,VWS V14.01,2013-05-13 10:35:00,
2013-05-13 04:40:00,56.6,56.6,-100.00,WSW,243,0.0,0.0,-999,0.00,,---,0.00,VWS V14.01,2013-05-13 10:40:00,
2013-05-13 04:45:00,56.3,56.3,-100.00,WSW,243,0.0,0.0,-999,0.00,,---,0.00,VWS V14.01,2013-05-13 10:45:00,
2013-05-13 04:50:00,55.5,55.5,-100.00,WSW,243,0.0,0.0,-999,0.00,,---,0.00,VWS V14.01,2013-05-13 10:50:00,
2013-05-13 04:55:00,55.1,55.1,-100.00,WSW,243,0.0,0.0,-999,0.00,,---,0.00,VWS V14.01,2013-05-13 10:55:00,
2013-05-13 05:00:00,54.3,54.3,-100.00,WSW,243,0.0,0.0,-999,0.00,,---,0.00,VWS V14.01,2013-05-13 11:00:00,
2013-05-13 05:05:00,54.1,54.1,-100.00,WSW,243,0.0,0.0,-999,0.00,,---,0.00,VWS V14.01,2013-05-13 11:05:00,
2013-05-13 05:10:00,54.1,54.1,-100.00,WSW,243,0.0,0.0,-999,0.00,,---,0.00,VWS V14.01,2013-05-13 11:10:00,
2013-05-13 05:15:00,53.9,53.9,-100.00,WSW,253,0.0,0.0,-999,0.00,,---,0.00,VWS V14.01,2013-05-13 11:15:00,
2013-05-13 05:20:00,54.2,54.2,-100.00,WSW,253,0.0,0.0,-999,0.00,,---,0.00,VWS V14.01,2013-05-13 11:20:00,
2013-05-13 05:25:00,54.5,54.5,-100.00,WSW,253,0.0,0.0,-999,0.00,,---,0.00,VWS V14.01,2013-05-13 11:25:00,
2013-05-13 05:30:00,54.1,54.1,-100.00,WSW,253,0.0,0.0,-999,0.00,,---,0.00,VWS V14.01,2013-05-13 11:30:00,
2013-05-13 05:35:00,53.5,53.5,-100.00,WSW,253,0.0,0.0,-999,0.00,,---,0.00,VWS V14.01,2013-05-13 11:35:00,
2013-05-13 05:40:00,53.0,53.0,-100.00,WSW,253,0.0,0.0,-999,0.00,,---,0.00,VWS V14.01,2013-05-13 11:40:00,
2013-05-13 05:45:00,55.2,55.2,-100.00,SW,225,0.0,2.0,-999,0.00,,---,0.00,VWS V14.01,2013-05-13 11:45:00,
2013-05-13 05:50:00,54.8,54.8,-100.00,WSW,252,0.0,2.0,-999,0.00,,---,0.00,VWS V14.01,2013-05-13 11:50:00,
2013-05-13 05:55:00,53.4,53.4,-100.00,West,259,0.0,2.0,-999,0.00,,---,0.00,VWS V14.01,2013-05-13 11:55:00,
2013-05-13 06:00:00,53.7,53.7,-100.00,West,259,0.0,0.0,-999,0.00,,---,0.00,VWS V14.01,2013-05-13 12:00:00,
2013-05-13 06:05:00,53.1,53.1,-100.00,West,259,0.0,0.0,-999,0.00,,---,0.00,VWS V14.01,2013-05-13 12:05:00,
2013-05-13 06:10:00,53.5,53.5,-100.00,SSW,205,0.0,2.0,-999,0.00,,---,0.00,VWS V14.01,2013-05-13 12:10:00,
2013-05-13 06:15:00,53.9,53.9,-100.00,SW,215,0.0,2.0,-999,0.00,,---,0.00,VWS V14.01,2013-05-13 12:15:00,
2013-05-13 06:20:00,53.5,53.5,-100.00,SSW,208,2.0,3.0,-999,0.00,,---,0.00,VWS V14.01,2013-05-13 12:20:00,
2013-05-13 06:25:00,53.5,53.5,-100.00,SSW,196,0.0,5.0,-999,0.00,,---,0.00,VWS V14.01,2013-05-13 12:25:00,
2013-05-13 06:30:00,53.8,53.8,-100.00,SSW,205,0.0,0.0,-999,0.00,,---,0.00,VWS V14.01,2013-05-13 12:30:00,
2013-05-13 06:35:00,53.9,53.9,-100.00,SSW,211,4.0,4.0,-999,0.00,,---,0.00,VWS V14.01,2013-05-13 12:35:00,
2013-05-13 06:40:00,54.1,54.1,-100.00,SW,214,0.0,4.0,-999,0.00,,---,0.00,VWS V14.01,2013-05-13 12:40:00,
2013-05-13 06:45:00,54.2,54.2,-100.00,SSW,196,0.0,5.0,-999,0.00,,---,0.00,VWS V14.01,2013-05-13 12:45:00,
2013-05-13 06:50:00,55.0,55.0,-100.00,SW,217,0.0,5.0,-999,0.00,,---,0.00,VWS V14.01,2013-05-13 12:50:00,
2013-05-13 06:55:00,54.9,54.9,-100.00,SSW,201,1.0,7.0,-999,0.00,,---,0.00,VWS V14.01,2013-05-13 12:55:00,
2013-05-13 07:00:00,54.7,54.7,-100.00,SSW,196,1.0,7.0,-999,0.00,,---,0.00,VWS V14.01,2013-05-13 13:00:00,
2013-05-13 07:05:00,55.3,55.3,-100.00,SSW,210,6.0,7.0,-999,0.00,,---,0.00,VWS V14.01,2013-05-13 13:05:00,
2013-05-13 07:10:00,55.2,55.2,-100.00,SSW,197,0.0,7.0,-999,0.00,,---,0.00,VWS V14.01,2013-05-13 13:10:00,
2013-05-13 07:15:00,55.5,55.5,-100.00,South,189,0.0,7.0,-999,0.00,,---,0.00,VWS V14.01,2013-05-13 13:15:00,
2013-05-13 07:20:00,55.8,55.8,-100.00,South,174,0.0,7.0,-999,0.00,,---,0.00,VWS V14.01,2013-05-13 13:20:00,
2013-05-13 07:25:00,55.9,55.9,-100.00,South,180,0.0,7.0,-999,0.00,,---,0.00,VWS V14.01,2013-05-13 13:25:00,
2013-05-13 07:30:00,56.1,56.1,-100.00,SSW,198,0.0,0.0,-999,0.00,,---,0.00,VWS V14.01,2013-05-13 13:30:00,
2013-05-13 07:35:00,56.4,56.4,-100.00,SSW,198,0.0,0.0,-999,0.00,,---,0.00,VWS V14.01,2013-05-13 13:35:00,
2013-05-13 07:40:00,56.8,56.8,-100.00,South,184,0.0,3.0,-999,0.00,,---,0.00,VWS V14.01,2013-05-13 13:40:00,
2013-05-13 07:45:00,57.1,57.1,-100.00,South,185,0.0,6.0,-999,0.00,,---,0.00,VWS V14.01,2013-05-13 13:45:00,
2013-05-13 07:50:00,57.4,57.4,-100.00,SSW,208,0.0,6.0,-999,0.00,,---,0.00,VWS V14.01,2013-05-13 13:50:00,
2013-05-13 07:55:00,57.6,57.6,-100.00,South,185,0.0,6.0,-999,0.00,,---,0.00,VWS V14.01,2013-05-13 13:55:00,
2013-05-13 08:00:00,58.0,58.0,-100.00,SSW,194,2.0,6.0,-999,0.00,,---,0.00,VWS V14.01,2013-05-13 14:00:00,
2013-05-13 08:05:00,58.4,58.4,-100.00,SSW,204,0.0,4.0,-999,0.00,,---,0.00,VWS V14.01,2013-05-13 14:05:00,
2013-05-13 08:10:00,58.9,58.9,-100.00,SSW,194,0.0,4.0,-999,0.00,,---,0.00,VWS V14.01,2013-05-13 14:10:00,
2013-05-13 08:15:00,59.8,59.8,-100.00,South,170,0.0,4.0,-999,0.00,,---,0.00,VWS V14.01,2013-05-13 14:15:00,
2013-05-13 08:20:00,60.3,60.3,-100.00,South,173,0.0,4.0,-999,0.00,,---,0.00,VWS V14.01,2013-05-13 14:20:00,
2013-05-13 08:25:00,60.3,60.3,-100.00,South,179,0.0,4.0,-999,0.00,,---,0.00,VWS V14.01,2013-05-13 14:25:00,
2013-05-13 08:30:00,60.2,60.2,-100.00,South,179,0.0,4.0,-999,0.00,,---,0.00,VWS V14.01,2013-05-13 14:30:00,
2013-05-13 08:35:00,58.0,58.0,-100.00,South,179,0.0,0.0,-999,0.00,,---,0.00,VWS V14.01,2013-05-13 14:35:00,
2013-05-13 08:40:00,59.8,59.8,-100.00,South,179,0.0,0.0,-999,0.00,,---,0.00,VWS V14.01,2013-05-13 14:40:00,
2013-05-13 08:45:00,61.4,61.4,-100.00,WNW,289,0.0,0.0,-999,0.00,,---,0.00,VWS V14.01,2013-05-13 14:45:00,
2013-05-13 08:50:00,62.6,62.6,-100.00,NW,321,0.0,0.0,-999,0.00,,---,0.00,VWS V14.01,2013-05-13 14:50:00,
2013-05-13 08:55:00,63.3,63.3,-100.00,NNW,346,0.0,0.0,-999,0.00,,---,0.00,VWS V14.01,2013-05-13 14:55:00,
2013-05-13 09:00:00,64.0,64.0,-100.00,NNW,347,0.0,0.0,-999,0.00,,---,0.00,VWS V14.01,2013-05-13 15:00:00,
2013-05-13 09:05:00,64.9,64.9,-100.00,SSW,200,0.0,0.0,-999,0.00,,---,0.00,VWS V14.01,2013-05-13 15:05:00,
2013-05-13 09:10:00,65.0,65.0,-100.00,WNW,288,0.0,0.0,-999,0.00,,---,0.00,VWS V14.01,2013-05-13 15:10:00,
2013-05-13 09:14:00,65.0,65.0,-100.00,NNE,22,0.0,0.0,-999,0.00,,---,0.00,VWS V14.01,2013-05-13 15:14:00,
2013-05-13 09:19:00,65.5,65.5,-100.00,ENE,75,0.0,0.0,-999,0.00,,---,0.00,VWS V14.01,2013-05-13 15:19:00,
2013-05-13 09:24:00,65.8,65.8,-100.00,SE,142,0.0,0.0,-999,0.00,,---,0.00,VWS V14.01,2013-05-13 15:24:00,
2013-05-13 09:29:00,65.7,65.7,-100.00,NNE,19,0.0,0.0,-999,0.00,,---,0.00,VWS V14.01,2013-05-13 15:29:00,
2013-05-13 09:30:00,65.7,-99.9,-100.00,NNE,19,0.0,0.0,-999,0.00,,---,0.00,VWS V14.01,2013-05-13 15:30:00,
2013-05-13 09:34:00,66.4,66.4,-100.00,North,359,0.0,0.0,-999,0.00,,---,0.00,VWS V14.01,2013-05-13 15:34:00,
2013-05-13 09:39:00,66.5,66.5,-100.00,NNE,22,0.0,0.0,-999,0.00,,---,0.00,VWS V14.01,2013-05-13 15:39:00,
2013-05-13 09:45:00,66.8,66.8,-100.00,NNE,31,0.0,0.0,-999,0.00,,---,0.00,VWS V14.01,2013-05-13 15:45:00,
2013-05-13 09:50:00,67.0,67.0,-100.00,ENE,76,0.0,0.0,-999,0.00,,---,0.00,VWS V14.01,2013-05-13 15:50:00,
2013-05-13 09:55:00,66.8,66.8,-100.00,SSE,147,0.0,0.0,-999,0.00,,---,0.00,VWS V14.01,2013-05-13 15:55:00,
2013-05-13 10:00:00,67.7,67.7,-100.00,SE,127,0.0,0.0,-999,0.00,,---,0.00,VWS V14.01,2013-05-13 16:00:00,
2013-05-13 10:05:00,68.8,68.8,-100.00,SSE,168,0.0,0.0,-999,0.00,,---,0.00,VWS V14.01,2013-05-13 16:05:00,
2013-05-13 10:10:00,68.7,68.7,-100.00,SE,140,0.0,0.0,-999,0.00,,---,0.00,VWS V14.01,2013-05-13 16:10:00,
2013-05-13 10:15:00,68.6,68.6,-100.00,ENE,76,0.0,0.0,-999,0.00,,---,0.00,VWS V14.01,2013-05-13 16:15:00,
2013-05-13 10:20:00,68.6,68.6,-100.00,SE,127,0.0,0.0,-999,0.00,,---,0.00,VWS V14.01,2013-05-13 16:20:00,
2013-05-13 10:25:00,69.1,69.1,-100.00,North,0,0.0,0.0,-999,0.00,,---,0.00,VWS V14.01,2013-05-13 16:25:00,
2013-05-13 10:30:00,69.1,69.1,-100.00,NE,51,0.0,0.0,-999,0.00,,---,0.00,VWS V14.01,2013-05-13 16:30:00,
2013-05-13 10:34:00,69.1,69.1,-100.00,NNE,32,0.0,5.0,-999,0.00,,---,0.00,VWS V14.01,2013-05-13 16:34:00,
2013-05-13 10:39:00,69.1,69.1,-100.00,NNE,30,0.0,5.0,-999,0.00,,---,0.00,VWS V14.01,2013-05-13 16:39:00,
2013-05-13 10:44:00,69.2,69.2,-100.00,North,5,0.0,5.0,-999,0.00,,---,0.00,VWS V14.01,2013-05-13 16:44:00,
2013-05-13 10:49:00,69.4,69.4,-100.00,NNW,348,0.0,5.0,-999,0.00,,---,0.00,VWS V14.01,2013-05-13 16:49:00,
2013-05-13 10:54:00,69.8,69.8,-100.00,NE,35,0.0,5.0,-999,0.00,,---,0.00,VWS V14.01,2013-05-13 16:54:00,
2013-05-13 10:59:00,71.2,71.2,-100.00,NE,34,0.0,5.0,-999,0.00,,---,0.00,VWS V14.01,2013-05-13 16:59:00,
2013-05-13 11:00:00,71.2,-99.9,-100.00,NE,35,0.0,5.0,-999,0.00,,---,0.00,VWS V14.01,2013-05-13 17:00:00,
2013-05-13 11:04:00,70.5,70.5,-100.00,NE,52,0.0,0.0,-999,0.00,,---,0.00,VWS V14.01,2013-05-13 17:04:00,
2013-05-13 11:09:00,70.9,70.9,-100.00,North,0,0.0,0.0,-999,0.00,,---,0.00,VWS V14.01,2013-05-13 17:09:00,
2013-05-13 11:14:00,70.8,70.8,-100.00,NNE,31,0.0,9.0,-999,0.00,,---,0.00,VWS V14.01,2013-05-13 17:14:00,
2013-05-13 11:19:00,70.8,70.8,-100.00,North,9,0.0,9.0,-999,0.00,,---,0.00,VWS V14.01,2013-05-13 17:19:00,
2013-05-13 11:24:00,71.9,71.9,-100.00,North,11,0.0,9.0,-999,0.00,,---,0.00,VWS V14.01,2013-05-13 17:24:00,
2013-05-13 11:29:00,72.0,72.0,-100.00,NNE,18,0.0,9.0,-999,0.00,,---,0.00,VWS V14.01,2013-05-13 17:29:00,
2013-05-13 11:30:00,72.1,-99.9,-100.00,North,359,2.0,9.0,-999,0.00,,---,0.00,VWS V14.01,2013-05-13 17:30:00,
2013-05-13 11:34:00,72.1,72.1,-100.00,NNW,335,4.0,13.0,-999,0.00,,---,0.00,VWS V14.01,2013-05-13 17:34:00,
2013-05-13 11:39:00,72.3,72.3,-100.00,North,353,0.0,13.0,-999,0.00,,---,0.00,VWS V14.01,2013-05-13 17:39:00,
2013-05-13 11:44:00,73.0,73.0,-100.00,North,1,0.0,13.0,-999,0.00,,---,0.00,VWS V14.01,2013-05-13 17:44:00,
2013-05-13 11:49:00,72.1,72.1,-100.00,NNE,18,0.0,13.0,-999,0.00,,---,0.00,VWS V14.01,2013-05-13 17:49:00,
2013-05-13 11:54:00,72.2,72.2,-100.00,North,357,0.0,13.0,-999,0.00,,---,0.00,VWS V14.01,2013-05-13 17:54:00,
2013-05-13 11:59:00,73.2,73.2,-100.00,NNW,343,0.0,13.0,-999,0.00,,---,0.00,VWS V14.01,2013-05-13 17:59:00,
2013-05-13 12:00:00,73.3,-99.9,-100.00,North,349,2.0,13.0,-999,0.00,,---,0.00,VWS V14.01,2013-05-13 18:00:00,
2013-05-13 12:04:00,73.4,73.4,-100.00,NNE,28,0.0,6.0,-999,0.00,,---,0.00,VWS V14.01,2013-05-13 18:04:00,
2013-05-13 12:09:00,74.1,74.1,-100.00,North,7,0.0,7.0,-999,0.00,,---,0.00,VWS V14.01,2013-05-13 18:09:00,
2013-05-13 12:14:00,73.5,73.5,-100.00,North,0,0.0,7.0,-999,0.00,,---,0.00,VWS V14.01,2013-05-13 18:14:00,
2013-05-13 12:19:00,72.8,72.8,-100.00,North,359,0.0,7.0,-999,0.00,,---,0.00,VWS V14.01,2013-05-13 18:19:00,
2013-05-13 12:24:00,73.2,73.2,-100.00,ENE,66,3.0,7.0,-999,0.00,,---,0.00,VWS V14.01,2013-05-13 18:24:00,
2013-05-13 12:29:00,72.7,72.7,-100.00,North,0,0.0,7.0,-999,0.00,,---,0.00,VWS V14.01,2013-05-13 18:29:00,
2013-05-13 12:30:00,72.6,-99.9,-100.00,North,0,0.0,7.0,-999,0.00,,,0.00,VWS V14.01,2013-05-13 18:30:00,
2013-05-13 12:34:00,72.2,72.2,-100.00,NE,41,0.0,5.0,-999,0.00,,---,0.00,VWS V14.01,2013-05-13 18:34:00,
2013-05-13 12:39:00,73.6,73.6,-100.00,NNW,344,4.0,6.0,-999,0.00,,---,0.00,VWS V14.01,2013-05-13 18:39:00,
2013-05-13 12:44:00,74.4,74.4,-100.00,North,0,0.0,6.0,-999,0.00,,---,0.00,VWS V14.01,2013-05-13 18:44:00,
2013-05-13 12:49:00,74.3,74.3,-100.00,NNE,12,4.0,9.0,-999,0.00,,---,0.00,VWS V14.01,2013-05-13 18:49:00,
2013-05-13 12:54:00,74.3,74.3,-100.00,North,349,8.0,12.0,-999,0.00,,---,0.00,VWS V14.01,2013-05-13 18:54:00,
2013-05-13 12:59:00,75.2,75.2,-100.00,North,356,0.0,12.0,-999,0.00,,---,0.00,VWS V14.01,2013-05-13 18:59:00,
2013-05-13 13:00:00,75.2,-99.9,-100.00,NNW,331,0.0,12.0,-999,0.00,,---,0.00,VWS V14.01,2013-05-13 19:00:00,
2013-05-13 13:04:00,76.3,76.3,-100.00,NE,35,0.0,0.0,-999,0.00,,---,0.00,VWS V14.01,2013-05-13 19:04:00,
2013-05-13 13:09:00,75.7,75.7,-100.00,North,357,0.0,6.0,-999,0.00,,---,0.00,VWS V14.01,2013-05-13 19:09:00,
2013-05-13 13:14:00,75.5,75.5,-100.00,NE,35,0.0,6.0,-999,0.00,,---,0.00,VWS V14.01,2013-05-13 19:14:00,
2013-05-13 13:19:00,75.4,75.4,-100.00,North,2,5.0,7.0,-999,0.00,,---,0.00,VWS V14.01,2013-05-13 19:19:00,
2013-05-13 13:24:00,75.2,75.2,-100.00,North,9,0.0,7.0,-999,0.00,,---,0.00,VWS V14.01,2013-05-13 19:24:00,
2013-05-13 13:29:00,75.4,75.4,-100.00,NNW,346,1.0,7.0,-999,0.00,,---,0.00,VWS V14.01,2013-05-13 19:29:00,
2013-05-13 13:30:00,75.4,-99.9,-100.00,North,358,0.0,7.0,-999,0.00,,,0.00,VWS V14.01,2013-05-13 19:30:00,
2013-05-13 13:34:00,75.6,75.6,-100.00,NW,326,0.0,9.0,-999,0.00,,---,0.00,VWS V14.01,2013-05-13 19:34:00,
2013-05-13 13:39:00,75.5,75.5,-100.00,NNW,334,4.0,12.0,-999,0.00,,---,0.00,VWS V14.01,2013-05-13 19:39:00,
2013-05-13 13:44:00,75.9,75.9,-100.00,North,359,0.0,12.0,-999,0.00,,---,0.00,VWS V14.01,2013-05-13 19:44:00,
2013-05-13 13:49:00,75.9,75.9,-100.00,NNW,345,1.0,12.0,-999,0.00,,---,0.00,VWS V14.01,2013-05-13 19:49:00,
2013-05-13 13:54:00,77.3,77.3,-100.00,NNW,339,0.0,12.0,-999,0.00,,---,0.00,VWS V14.01,2013-05-13 19:54:00,
2013-05-13 13:59:00,77.3,77.3,-100.00,NNW,348,7.0,12.0,-999,0.00,,---,0.00,VWS V14.01,2013-05-13 19:59:00,
2013-05-13 14:00:00,77.3,-99.9,-100.00,NNW,333,0.0,12.0,-999,0.00,,---,0.00,VWS V14.01,2013-05-13 20:00:00,
2013-05-13 14:04:00,77.7,77.7,-100.00,North,357,4.0,7.0,-999,0.00,,---,0.00,VWS V14.01,2013-05-13 20:04:00,
2013-05-13 14:09:00,77.4,77.4,-100.00,North,359,0.0,10.0,-999,0.00,,---,0.00,VWS V14.01,2013-05-13 20:09:00,
2013-05-13 14:14:00,77.8,77.8,-100.00,North,10,0.0,10.0,-999,0.00,,---,0.00,VWS V14.01,2013-05-13 20:14:00,
2013-05-13 14:19:00,78.5,78.5,-100.00,NNE,19,0.0,10.0,-999,0.00,,---,0.00,VWS V14.01,2013-05-13 20:19:00,
2013-05-13 14:24:00,78.5,78.5,-100.00,SSW,207,0.0,10.0,-999,0.00,,---,0.00,VWS V14.01,2013-05-13 20:24:00,
2013-05-13 14:29:00,78.8,78.8,-100.00,SE,125,0.0,10.0,-999,0.00,,---,0.00,VWS V14.01,2013-05-13 20:29:00,
2013-05-13 14:30:00,78.8,-99.9,-100.00,ESE,109,0.0,10.0,-999,0.00,,---,0.00,VWS V14.01,2013-05-13 20:30:00,
2013-05-13 14:34:00,80.5,80.5,-100.00,WNW,303,0.0,0.0,-999,0.00,,---,0.00,VWS V14.01,2013-05-13 20:34:00,
2013-05-13 14:39:00,81.8,81.8,-100.00,SW,214,19.0,20.0,-999,0.00,,---,0.00,VWS V14.01,2013-05-13 20:39:00,
2013-05-13 14:44:00,80.6,80.6,-100.00,WSW,244,13.0,26.0,-999,0.00,,---,0.00,VWS V14.01,2013-05-13 20:44:00,
2013-05-13 14:49:00,82.0,82.0,-100.00,WNW,282,11.0,26.0,-999,0.00,,---,0.00,VWS V14.01,2013-05-13 20:49:00,
2013-05-13 14:54:00,82.2,82.2,-100.00,SSW,213,11.0,26.0,-999,0.00,,---,0.00,VWS V14.01,2013-05-13 20:54:00,
2013-05-13 14:59:00,80.2,80.2,-100.00,West,269,13.0,26.0,-999,0.00,,---,0.00,VWS V14.01,2013-05-13 20:59:00,
2013-05-13 15:00:00,80.0,-99.9,-100.00,WNW,303,17.0,26.0,-999,0.00,,---,0.00,VWS V14.01,2013-05-13 21:00:00,
2013-05-13 15:04:00,79.4,79.4,-100.00,NW,310,0.0,17.0,-999,0.00,,---,0.00,VWS V14.01,2013-05-13 21:04:00,
2013-05-13 15:09:00,80.4,80.4,-100.00,WSW,242,7.0,17.0,-999,0.00,,---,0.00,VWS V14.01,2013-05-13 21:09:00,
2013-05-13 15:14:00,82.0,82.0,-100.00,WSW,253,4.0,17.0,-999,0.00,,---,0.00,VWS V14.01,2013-05-13 21:14:00,
2013-05-13 15:19:00,81.2,81.2,-100.00,West,272,15.0,27.0,-999,0.00,,---,0.00,VWS V14.01,2013-05-13 21:19:00,
2013-05-13 15:24:00,81.4,81.4,-100.00,SW,218,0.0,27.0,-999,0.00,,---,0.00,VWS V14.01,2013-05-13 21:24:00,
2013-05-13 15:29:00,81.2,81.2,-100.00,SW,233,7.0,27.0,-999,0.00,,---,0.00,VWS V14.01,2013-05-13 21:29:00,
2013-05-13 15:30:00,81.1,-99.9,-100.00,SW,227,15.0,27.0,-999,0.00,,---,0.00,VWS V14.01,2013-05-13 21:30:00,
2013-05-13 15:34:00,81.8,81.8,-100.00,SW,234,0.0,22.0,-999,0.00,,---,0.00,VWS V14.01,2013-05-13 21:34:00,
2013-05-13 15:39:00,81.8,81.8,-100.00,SW,233,3.0,22.0,-999,0.00,,---,0.00,VWS V14.01,2013-05-13 21:39:00,
2013-05-13 15:44:00,82.3,82.3,-100.00,West,272,2.0,22.0,-999,0.00,,---,0.00,VWS V14.01,2013-05-13 21:44:00,
2013-05-13 15:49:00,82.3,82.3,-100.00,SW,233,5.0,28.0,-999,0.00,,---,0.00,VWS V14.01,2013-05-13 21:49:00,
2013-05-13 15:54:00,82.3,82.3,-100.00,SW,222,0.0,28.0,-999,0.00,,---,0.00,VWS V14.01,2013-05-13 21:54:00,
2013-05-13 15:59:00,82.9,82.9,-100.00,West,276,0.0,28.0,-999,0.00,,---,0.00,VWS V14.01,2013-05-13 21:59:00,
2013-05-13 16:00:00,82.4,-99.9,-100.00,West,271,8.0,28.0,-999,0.00,,,0.00,VWS V14.01,2013-05-13 22:00:00,
2013-05-13 16:04:00,82.4,82.4,-100.00,SSW,210,10.0,24.0,-999,0.00,,---,0.00,VWS V14.01,2013-05-13 22:04:00,
2013-05-13 16:09:00,82.6,82.6,-100.00,SSW,206,4.0,24.0,-999,0.00,,---,0.00,VWS V14.01,2013-05-13 22:09:00,
2013-05-13 16:14:00,81.4,81.4,-100.00,SW,218,0.0,24.0,-999,0.00,,---,0.00,VWS V14.01,2013-05-13 22:14:00,
2013-05-13 16:19:00,82.6,82.6,-100.00,SSW,209,6.0,24.0,-999,0.00,,---,0.00,VWS V14.01,2013-05-13 22:19:00,
2013-05-13 16:24:00,82.1,82.1,-100.00,WSW,237,0.0,24.0,-999,0.00,,---,0.00,VWS V14.01,2013-05-13 22:24:00,
2013-05-13 16:29:00,81.1,81.1,-100.00,WSW,237,0.0,24.0,-999,0.00,,---,0.00,VWS V14.01,2013-05-13 22:29:00,
2013-05-13 16:30:00,80.8,-99.9,-100.00,SW,217,0.0,24.0,-999,0.00,,---,0.00,VWS V14.01,2013-05-13 22:30:00,
2013-05-13 16:34:00,80.8,80.8,-100.00,SW,215,0.0,13.0,-999,0.00,,---,0.00,VWS V14.01,2013-05-13 22:34:00,
2013-05-13 16:39:00,80.2,80.2,-100.00,South,182,0.0,13.0,-999,0.00,,---,0.00,VWS V14.01,2013-05-13 22:39:00,
2013-05-13 16:44:00,78.4,78.4,-100.00,SW,216,0.0,13.0,-999,0.00,,---,0.00,VWS V14.01,2013-05-13 22:44:00,
2013-05-13 16:49:00,78.8,78.8,-100.00,SW,219,0.0,13.0,-999,0.00,,---,0.00,VWS V14.01,2013-05-13 22:49:00,
2013-05-13 16:54:00,78.8,78.8,-100.00,SE,145,0.0,13.0,-999,0.00,,---,0.00,VWS V14.01,2013-05-13 22:54:00,
2013-05-13 16:59:00,79.8,79.8,-100.00,SW,221,5.0,13.0,-999,0.00,,---,0.00,VWS V14.01,2013-05-13 22:59:00,
2013-05-13 17:00:00,79.7,-99.9,-100.00,SSW,206,4.0,13.0,-999,0.00,,,0.00,VWS V14.01,2013-05-13 23:00:00,
2013-05-13 17:04:00,80.4,80.4,-100.00,West,279,7.0,8.0,-999,0.00,,---,0.00,VWS V14.01,2013-05-13 23:04:00,
2013-05-13 17:09:00,80.8,80.8,-100.00,SSW,209,0.0,8.0,-999,0.00,,---,0.00,VWS V14.01,2013-05-13 23:09:00,
2013-05-13 17:14:00,79.9,79.9,-100.00,SW,227,3.0,28.0,-999,0.00,,---,0.00,VWS V14.01,2013-05-13 23:14:00,
2013-05-13 17:18:00,81.8,81.8,-100.00,South,189,0.0,28.0,-999,0.00,,---,0.00,VWS V14.01,2013-05-13 23:18:00,
2013-05-13 17:23:00,82.1,82.1,-100.00,West,260,14.0,28.0,-999,0.00,,---,0.00,VWS V14.01,2013-05-13 23:23:00,
2013-05-13 17:28:00,82.1,82.1,-100.00,SW,220,4.0,28.0,-999,0.00,,---,0.00,VWS V14.01,2013-05-13 23:28:00,
2013-05-13 17:30:00,82.2,-99.9,-100.00,South,182,0.0,28.0,-999,0.00,,---,0.00,VWS V14.01,2013-05-13 23:30:00,
2013-05-13 17:33:00,82.4,82.4,-100.00,SSW,202,2.0,8.0,-999,0.00,,---,0.00,VWS V14.01,2013-05-13 23:33:00,
2013-05-13 17:38:00,81.9,81.9,-100.00,South,178,0.0,18.0,-999,0.00,,---,0.00,VWS V14.01,2013-05-13 23:38:00,
2013-05-13 17:43:00,82.2,82.2,-100.00,SSW,206,17.0,29.0,-999,0.00,,---,0.00,VWS V14.01,2013-05-13 23:43:00,
2013-05-13 17:48:00,82.1,82.1,-100.00,SSW,211,23.0,29.0,-999,0.00,,---,0.00,VWS V14.01,2013-05-13 23:48:00,
2013-05-13 17:53:00,81.6,81.6,-100.00,SW,229,0.0,29.0,-999,0.00,,---,0.00,VWS V14.01,2013-05-13 23:53:00,
2013-05-13 17:58:00,80.9,80.9,-100.00,SSW,199,10.0,29.0,-999,0.00,,---,0.00,VWS V14.01,2013-05-13 23:58:00,
2013-05-13 18:00:00,80.9,-99.9,-100.00,SSW,209,13.0,29.0,-999,0.00,,---,0.00,VWS V14.01,2013-05-14 00:00:00,
2013-05-13 18:03:00,82.4,82.4,-100.00,SSW,193,0.0,15.0,-999,0.00,,---,0.00,VWS V14.01,2013-05-14 00:03:00,
2013-05-13 18:08:00,82.8,82.8,-100.00,WSW,242,15.0,25.0,-999,0.00,,---,0.00,VWS V14.01,2013-05-14 00:08:00,
2013-05-13 18:13:00,82.0,82.0,-100.00,SW,226,22.0,32.0,-999,0.00,,---,0.00,VWS V14.01,2013-05-14 00:13:00,
2013-05-13 18:18:00,80.8,80.8,-100.00,SSW,206,4.0,32.0,-999,0.00,,---,0.00,VWS V14.01,2013-05-14 00:18:00,
2013-05-13 18:23:00,81.0,81.0,-100.00,SW,214,17.0,32.0,-999,0.00,,---,0.00,VWS V14.01,2013-05-14 00:23:00,
2013-05-13 18:28:00,82.0,82.0,-100.00,SSW,203,0.0,32.0,-999,0.00,,---,0.00,VWS V14.01,2013-05-14 00:28:00,
2013-05-13 18:30:00,81.9,-99.9,-100.00,SW,232,5.0,32.0,-999,0.00,,---,0.00,VWS V14.01,2013-05-14 00:30:00,
2013-05-13 18:33:00,80.7,80.7,-100.00,SSW,201,6.0,22.0,-999,0.00,,---,0.00,VWS V14.01,2013-05-14 00:33:00,
2013-05-13 18:38:00,81.8,81.8,-100.00,SW,224,0.0,23.0,-999,0.00,,---,0.00,VWS V14.01,2013-05-14 00:38:00,
2013-05-13 18:43:00,83.7,83.7,-100.00,SW,228,13.0,28.0,-999,0.00,,---,0.00,VWS V14.01,2013-05-14 00:43:00,
2013-05-13 18:48:00,83.6,83.6,-100.00,SSW,212,7.0,28.0,-999,0.00,,---,0.00,VWS V14.01,2013-05-14 00:48:00,
2013-05-13 18:53:00,83.8,83.8,-100.00,SW,231,3.0,28.0,-999,0.00,,---,0.00,VWS V14.01,2013-05-14 00:53:00,
2013-05-13 18:58:00,88.5,88.5,-100.00,SSE,160,11.0,32.0,-999,0.00,,---,0.00,VWS V14.01,2013-05-14 00:58:00,
2013-05-13 19:00:00,90.2,-99.9,-100.00,SW,228,13.0,32.0,-999,0.00,,---,0.00,VWS V14.01,2013-05-14 01:00:00,
2013-05-13 19:03:00,89.0,89.0,-100.00,South,181,0.0,23.0,-999,0.00,,---,0.00,VWS V14.01,2013-05-14 01:03:00,
2013-05-13 19:08:00,82.8,82.8,-100.00,SSW,207,24.0,28.0,-999,0.00,,---,0.00,VWS V14.01,2013-05-14 01:08:00,
2013-05-13 19:13:00,81.9,81.9,-100.00,SSW,204,16.0,28.0,-999,0.00,,---,0.00,VWS V14.01,2013-05-14 01:13:00,
2013-05-13 19:18:00,82.8,82.8,-100.00,SW,228,1.0,28.0,-999,0.00,,---,0.00,VWS V14.01,2013-05-14 01:18:00,
2013-05-13 19:23:00,80.9,80.9,-100.00,SSW,213,18.0,28.0,-999,0.00,,---,0.00,VWS V14.01,2013-05-14 01:23:00,
2013-05-13 19:28:00,79.9,79.9,-100.00,SW,220,3.0,33.0,-999,0.00,,---,0.00,VWS V14.01,2013-05-14 01:28:00,
2013-05-13 19:30:00,79.9,-99.9,-100.00,SSW,208,10.0,33.0,-999,0.00,,---,0.00,VWS V14.01,2013-05-14 01:30:00,
2013-05-13 19:33:00,79.8,79.8,-100.00,SSW,204,17.0,24.0,-999,0.00,,---,0.00,VWS V14.01,2013-05-14 01:33:00,
2013-05-13 19:38:00,78.9,78.9,-100.00,SW,220,4.0,24.0,-999,0.00,,---,0.00,VWS V14.01,2013-05-14 01:38:00,
2013-05-13 19:43:00,78.0,78.0,-100.00,West,263,2.0,25.0,-999,0.00,,---,0.00,VWS V14.01,2013-05-14 01:43:00,
2013-05-13 19:48:00,75.9,75.9,-100.00,West,278,3.0,25.0,-999,0.00,,---,0.00,VWS V14.01,2013-05-14 01:48:00,
2013-05-13 19:53:00,73.6,73.6,-100.00,WNW,300,0.0,25.0,-999,0.00,,---,0.00,VWS V14.01,2013-05-14 01:53:00,
2013-05-13 19:58:00,71.7,71.7,-100.00,West,279,8.0,25.0,-999,0.00,,---,0.00,VWS V14.01,2013-05-14 01:58:00,
2013-05-13 20:00:00,70.6,-99.9,-100.00,SSW,202,2.0,25.0,-999,0.00,,---,0.00,VWS V14.01,2013-05-14 02:00:00,
2013-05-13 20:03:00,69.4,69.4,-100.00,WNW,282,17.0,24.0,-999,0.00,,---,0.00,VWS V14.01,2013-05-14 02:03:00,
2013-05-13 20:08:00,68.9,68.9,-100.00,NW,305,15.0,27.0,-999,0.00,,---,0.00,VWS V14.01,2013-05-14 02:08:00,
2013-05-13 20:13:00,67.6,67.6,-100.00,WSW,251,13.0,27.0,-999,0.00,,---,0.00,VWS V14.01,2013-05-14 02:13:00,
2013-05-13 20:18:00,67.0,67.0,-100.00,SW,227,8.0,27.0,-999,0.00,,---,0.00,VWS V14.01,2013-05-14 02:18:00,
2013-05-13 20:23:00,66.5,66.5,-100.00,WNW,284,16.0,27.0,-999,0.00,,---,0.00,VWS V14.01,2013-05-14 02:23:00,
2013-05-13 20:28:00,66.3,66.3,-100.00,WSW,247,8.0,27.0,-999,0.00,,---,0.00,VWS V14.01,2013-05-14 02:28:00,
2013-05-13 20:30:00,66.1,-99.9,-100.00,WSW,244,1.0,27.0,-999,0.00,,---,0.00,VWS V14.01,2013-05-14 02:30:00,
2013-05-13 20:33:00,65.8,65.8,-100.00,SSW,209,2.0,12.0,-999,0.00,,---,0.00,VWS V14.01,2013-05-14 02:33:00,
2013-05-13 20:38:00,65.8,65.8,-100.00,South,177,0.0,12.0,-999,0.00,,---,0.00,VWS V14.01,2013-05-14 02:38:00,
2013-05-13 20:43:00,65.0,65.0,-100.00,SSW,198,0.0,12.0,-999,0.00,,---,0.00,VWS V14.01,2013-05-14 02:43:00,
2013-05-13 20:48:00,65.0,65.0,-100.00,SW,215,3.0,12.0,-999,0.00,,---,0.00,VWS V14.01,2013-05-14 02:48:00,
2013-05-13 20:53:00,65.0,65.0,-100.00,SW,234,2.0,14.0,-999,0.00,,---,0.00,VWS V14.01,2013-05-14 02:53:00,
2013-05-13 20:58:00,64.9,64.9,-100.00,SSW,206,6.0,14.0,-999,0.00,,---,0.00,VWS V14.01,2013-05-14 02:58:00,
2013-05-13 21:00:00,64.8,-99.9,-100.00,SSW,207,0.0,14.0,-999,0.00,,---,0.00,VWS V14.01,2013-05-14 03:00:00,
2013-05-13 21:03:00,64.1,64.1,-100.00,South,177,2.0,4.0,-999,0.00,,---,0.00,VWS V14.01,2013-05-14 03:03:00,
2013-05-13 21:08:00,63.5,63.5,-100.00,ESE,121,0.0,4.0,-999,0.00,,---,0.00,VWS V14.01,2013-05-14 03:08:00,
2013-05-13 21:13:00,62.9,62.9,-100.00,SSW,208,0.0,4.0,-999,0.00,,---,0.00,VWS V14.01,2013-05-14 03:13:00,
2013-05-13 21:18:00,63.8,63.8,-100.00,SW,219,7.0,7.0,-999,0.00,,---,0.00,VWS V14.01,2013-05-14 03:18:00,
2013-05-13 21:23:00,64.7,64.7,-100.00,SSW,206,5.0,12.0,-999,0.00,,---,0.00,VWS V14.01,2013-05-14 03:23:00,
2013-05-13 21:28:00,64.4,64.4,-100.00,ENE,69,7.0,12.0,-999,0.00,,---,0.00,VWS V14.01,2013-05-14 03:28:00,
2013-05-13 21:30:00,64.1,-99.9,-100.00,ESE,118,0.0,12.0,-999,0.00,,---,0.00,VWS V14.01,2013-05-14 03:30:00,
2013-05-13 21:33:00,64.1,64.1,-100.00,WSW,246,0.0,9.0,-999,0.00,,---,0.00,VWS V14.01,2013-05-14 03:33:00,
2013-05-13 21:38:00,63.7,63.7,-100.00,SSE,149,0.0,9.0,-999,0.00,,---,0.00,VWS V14.01,2013-05-14 03:38:00,
2013-05-13 21:43:00,63.3,63.3,-100.00,South,176,0.0,9.0,-999,0.00,,---,0.00,VWS V14.01,2013-05-14 03:43:00,
2013-05-13 21:48:00,62.8,62.8,-100.00,South,170,0.0,9.0,-999,0.00,,---,0.00,VWS V14.01,2013-05-14 03:48:00,
2013-05-13 21:53:00,62.2,62.2,-100.00,South,186,0.0,9.0,-999,0.00,,---,0.00,VWS V14.01,2013-05-14 03:53:00,
2013-05-13 21:58:00,62.5,62.5,-100.00,SSE,167,0.0,9.0,-999,0.00,,---,0.00,VWS V14.01,2013-05-14 03:58:00,
2013-05-13 22:00:00,62.6,-99.9,-100.00,South,188,6.0,9.0,-999,0.00,,---,0.00,VWS V14.01,2013-05-14 04:00:00,
2013-05-13 22:01:00,62.5,62.5,-100.00,SE,141,4.0,6.0,-999,0.00,,---,0.00,VWS V14.01,2013-05-14 04:01:00,
2013-05-13 22:06:00,62.9,62.9,-100.00,SSW,207,5.0,14.0,-999,0.00,,---,0.00,VWS V14.01,2013-05-14 04:06:00,
2013-05-13 22:11:00,62.6,62.6,-100.00,SW,216,12.0,18.0,-999,0.00,,---,0.00,VWS V14.01,2013-05-14 04:11:00,
2013-05-13 22:16:00,62.5,62.5,-100.00,SE,143,0.0,18.0,-999,0.00,,---,0.00,VWS V14.01,2013-05-14 04:16:00,
2013-05-13 22:21:00,62.5,62.5,-100.00,WSW,239,2.0,18.0,-999,0.00,,---,0.00,VWS V14.01,2013-05-14 04:21:00,
2013-05-13 22:26:00,62.5,62.5,-100.00,North,354,5.0,18.0,-999,0.00,,---,0.00,VWS V14.01,2013-05-14 04:26:00,
2013-05-13 22:30:00,62.1,-99.9,-100.00,WNW,286,0.0,18.0,-999,0.00,,---,0.00,VWS V14.01,2013-05-14 04:30:00,
2013-05-13 22:31:00,62.0,62.0,-100.00,North,358,12.0,12.0,-999,0.00,,---,0.00,VWS V14.01,2013-05-14 04:31:00,
2013-05-13 22:36:00,61.0,61.0,-100.00,NNW,337,3.0,20.0,-999,0.00,,---,0.00,VWS V14.01,2013-05-14 04:36:00,
2013-05-13 22:41:00,60.3,60.3,-100.00,NNW,329,4.0,20.0,-999,0.00,,---,0.00,VWS V14.01,2013-05-14 04:41:00,
2013-05-13 22:46:00,59.5,59.5,-100.00,NW,308,13.0,20.0,-999,0.00,,---,0.00,VWS V14.01,2013-05-14 04:46:00,
2013-05-13 22:51:00,59.1,59.1,-100.00,NW,312,5.0,20.0,-999,0.00,,---,0.00,VWS V14.01,2013-05-14 04:51:00,
2013-05-13 22:56:00,58.9,58.9,-100.00,NNW,333,1.0,20.0,-999,0.00,,---,0.00,VWS V14.01,2013-05-14 04:56:00,
2013-05-13 23:00:00,58.8,-99.9,-100.00,SSE,161,0.0,20.0,-999,0.00,,---,0.00,VWS V14.01,2013-05-14 05:00:00,
2013-05-13 23:01:00,58.7,58.7,-100.00,SSE,158,0.0,0.0,-999,0.00,,---,0.00,VWS V14.01,2013-05-14 05:01:00,
2013-05-13 23:06:00,58.9,58.9,-100.00,South,180,0.0,0.0,-999,0.00,,---,0.00,VWS V14.01,2013-05-14 05:06:00,
2013-05-13 23:11:00,58.5,58.5,-100.00,West,271,0.0,3.0,-999,0.00,,---,0.00,VWS V14.01,2013-05-14 05:11:00,
2013-05-13 23:16:00,58.3,58.3,-100.00,SSW,209,4.0,5.0,-999,0.00,,---,0.00,VWS V14.01,2013-05-14 05:16:00,
2013-05-13 23:21:00,58.5,58.5,-100.00,SSW,210,8.0,13.0,-999,0.00,,---,0.00,VWS V14.01,2013-05-14 05:21:00,
2013-05-13 23:26:00,57.7,57.7,-100.00,SW,214,9.0,16.0,-999,0.00,,---,0.00,VWS V14.01,2013-05-14 05:26:00,
2013-05-13 23:30:00,57.4,-99.9,-100.00,WSW,254,9.0,16.0,-999,0.00,,---,0.00,VWS V14.01,2013-05-14 05:30:00,
2013-05-13 23:31:00,57.7,57.7,-100.00,SSW,199,4.0,9.0,-999,0.00,,---,0.00,VWS V14.01,2013-05-14 05:31:00,
2013-05-13 23:36:00,57.3,57.3,-100.00,SW,217,6.0,13.0,-999,0.00,,---,0.00,VWS V14.01,2013-05-14 05:36:00,
2013-05-13 23:41:00,56.4,56.4,-100.00,SW,218,1.0,13.0,-999,0.00,,---,0.00,VWS V14.01,2013-05-14 05:41:00,
2013-05-13 23:46:00,56.2,56.2,-100.00,SW,233,4.0,13.0,-999,0.00,,---,0.00,VWS V14.01,2013-05-14 05:46:00,
2013-05-13 23:51:00,55.6,55.6,-100.00,South,184,0.0,13.0,-999,0.00,,---,0.00,VWS V14.01,2013-05-14 05:51:00,
2013-05-13 23:56:00,55.3,55.3,-100.00,SSW,206,0.0,13.0,-999,0.00,,---,0.00,VWS V14.01,2013-05-14 05:56:00,